Time;durP1;ratioP1;P1;durP2;ratioP2;P2;SDS_P1;SDS_P2;PMS_P1;PMS_P2;Temp;Humidity;BMP_temperature;BMP_pressure;BME280_temperature;BME280_humidity;BME280_pressure;Samples;Min_cycle;Max_cycle;Signal;HPM_P1;HPM_P2
2023/08/12 00:00:55;;;;;;;0.23;0.23;;;;;;;21.89;77.52;99967.19;5006607;28;20311;-72
2023/08/12 00:03:21;;;;;;;0.20;0.20;;;;;;;21.82;77.79;99933.56;5023241;28;20054;-72
2023/08/12 00:05:47;;;;;;;0.20;0.20;;;;;;;21.76;78.01;99938.53;4988947;28;20545;-72
2023/08/12 00:08:14;;;;;;;0.20;0.20;;;;;;;21.79;78.50;99959.31;5007080;28;20144;-72
2023/08/12 00:10:40;;;;;;;0.30;0.30;;;;;;;21.73;78.73;99961.50;5031381;28;20099;-71
2023/08/12 00:13:07;;;;;;;0.30;0.30;;;;;;;21.68;79.19;99954.19;4993040;28;20072;-72
2023/08/12 00:15:33;;;;;;;0.20;0.20;;;;;;;21.65;79.45;99954.06;5029950;28;20531;-71
2023/08/12 00:18:04;;;;;;;0.30;0.30;;;;;;;21.64;79.25;99944.88;4994069;28;20053;-72
2023/08/12 00:20:30;;;;;;;0.20;0.20;;;;;;;21.63;79.40;99959.97;5024227;28;20041;-73
2023/08/12 00:22:56;;;;;;;0.20;0.20;;;;;;;21.59;79.42;99958.22;5023598;28;20049;-71
2023/08/12 00:25:23;;;;;;;0.28;0.28;;;;;;;21.57;79.29;99957.75;4992728;28;20061;-72
2023/08/12 00:27:49;;;;;;;0.20;0.20;;;;;;;21.57;79.29;99954.97;5008171;28;20526;-70
2023/08/12 00:30:16;;;;;;;0.30;0.30;;;;;;;21.55;78.93;99952.53;5025540;28;20590;-71
2023/08/12 00:32:42;;;;;;;0.20;0.20;;;;;;;21.57;79.42;99950.22;4990848;28;20049;-72
2023/08/12 00:35:10;;;;;;;0.30;0.30;;;;;;;21.56;79.48;99956.13;5008752;28;20045;-72
2023/08/12 00:37:36;;;;;;;0.20;0.20;;;;;;;21.55;79.37;99941.41;5009614;28;20069;-72
2023/08/12 00:40:04;;;;;;;0.30;0.30;;;;;;;21.46;79.20;99927.59;5028155;28;20528;-72
2023/08/12 00:42:31;;;;;;;0.30;0.30;;;;;;;21.56;79.12;99951.38;5006744;28;20096;-71
2023/08/12 00:44:58;;;;;;;0.30;0.30;;;;;;;21.52;79.24;99942.09;4992946;28;20099;-72
2023/08/12 00:47:24;;;;;;;0.20;0.20;;;;;;;21.52;78.94;99947.66;5006448;28;20065;-71
2023/08/12 00:49:51;;;;;;;0.20;0.20;;;;;;;21.47;78.90;99942.31;4992078;28;20072;-71
2023/08/12 00:52:20;;;;;;;0.20;0.20;;;;;;;21.50;78.90;99966.66;5006307;28;20117;-72
2023/08/12 00:54:46;;;;;;;0.20;0.20;;;;;;;21.52;78.65;99958.78;4999719;28;20045;-71
2023/08/12 00:57:14;;;;;;;0.20;0.20;;;;;;;21.49;78.70;99956.69;5005745;28;20054;-72
2023/08/12 00:59:43;;;;;;;0.20;0.20;;;;;;;21.46;78.62;99941.50;5004796;28;20540;-71
2023/08/12 01:02:10;;;;;;;0.20;0.20;;;;;;;21.47;78.67;99939.53;4973922;28;20565;-71
2023/08/12 01:04:36;;;;;;;0.20;0.20;;;;;;;21.46;78.66;99940.69;5008814;28;20057;-73
2023/08/12 01:07:04;;;;;;;0.20;0.20;;;;;;;21.46;78.30;99935.13;4993483;28;20073;-71
2023/08/12 01:09:32;;;;;;;;;;;;;;;21.47;78.40;99931.19;5005825;28;20049;-71
2023/08/12 01:12:06;;;;;;;0.20;0.20;;;;;;;21.46;78.42;99933.16;4990038;28;20367;-72
2023/08/12 01:14:39;;;;;;;0.20;0.20;;;;;;;21.42;77.15;99937.00;4988468;28;20046;-72
2023/08/12 01:17:08;;;;;;;0.20;0.20;;;;;;;21.38;80.50;99943.22;5014126;28;20041;-73
2023/08/12 01:19:37;;;;;;;0.20;0.20;;;;;;;21.36;80.62;99956.66;4992700;28;20536;-71
2023/08/12 01:22:06;;;;;;;0.20;0.20;;;;;;;21.33;80.70;99951.00;4989784;28;20482;-71
2023/08/12 01:24:38;;;;;;;0.20;0.20;;;;;;;21.26;80.94;99954.34;5006866;28;20057;-73
2023/08/12 01:27:06;;;;;;;0.20;0.20;;;;;;;21.21;81.36;99955.38;4973332;28;20050;-72
2023/08/12 01:29:33;;;;;;;0.30;0.30;;;;;;;21.15;81.76;99953.16;5006706;28;20041;-72
2023/08/12 01:32:12;;;;;;;0.30;0.30;;;;;;;21.12;82.18;99949.06;5013405;28;20533;-71
2023/08/12 01:34:43;;;;;;;0.20;0.20;;;;;;;21.13;82.21;99945.13;5005136;28;20075;-72
2023/08/12 01:37:14;;;;;;;0.20;0.20;;;;;;;21.08;82.31;99935.06;5003913;28;20504;-70
2023/08/12 01:39:43;;;;;;;0.20;0.20;;;;;;;21.06;82.20;99931.00;5003278;28;20045;-71
2023/08/12 01:42:10;;;;;;;0.28;0.28;;;;;;;21.03;82.64;99931.69;5005810;28;20103;-72
2023/08/12 01:44:37;;;;;;;0.20;0.20;;;;;;;21.03;82.78;99938.03;5007733;28;20053;-71
2023/08/12 01:47:04;;;;;;;0.30;0.30;;;;;;;21.07;82.95;99936.22;4973935;28;20536;-73
2023/08/12 01:49:30;;;;;;;0.20;0.20;;;;;;;21.08;82.54;99929.50;4991222;28;20060;-71
2023/08/12 01:51:57;;;;;;;0.20;0.20;;;;;;;21.09;82.21;99911.69;5008469;28;20057;-72
2023/08/12 01:54:24;;;;;;;0.20;0.20;;;;;;;21.08;81.84;99912.00;5004185;28;20045;-72
2023/08/12 01:56:51;;;;;;;0.20;0.20;;;;;;;21.04;81.73;99895.19;5005220;28;20585;-71
2023/08/12 01:59:17;;;;;;;0.20;0.20;;;;;;;21.08;82.26;99903.66;4989555;28;20501;-71
2023/08/12 02:01:44;;;;;;;0.20;0.20;;;;;;;21.10;82.13;99906.91;5004430;28;20088;-72
2023/08/12 02:04:10;;;;;;;0.20;0.20;;;;;;;21.10;82.21;99893.84;5003076;28;20540;-71
2023/08/12 02:06:36;;;;;;;0.20;0.20;;;;;;;21.13;81.94;99894.31;5005468;28;20060;-72
2023/08/12 02:09:03;;;;;;;0.30;0.30;;;;;;;21.11;81.95;99900.19;5005041;28;20054;-72
2023/08/12 02:11:29;;;;;;;0.25;0.25;;;;;;;21.13;81.84;99889.53;4987179;28;20530;-72
2023/08/12 02:13:56;;;;;;;0.20;0.20;;;;;;;21.11;81.34;99887.13;5006481;28;20089;-72
2023/08/12 02:16:23;;;;;;;0.20;0.20;;;;;;;21.14;80.85;99893.16;4970458;28;20056;-72
2023/08/12 02:19:09;;;;;;;0.20;0.20;;;;;;;21.15;80.70;99898.38;4990255;28;20559;-71
2023/08/12 02:21:35;;;;;;;0.20;0.20;;;;;;;21.16;80.46;99886.09;5005160;28;20061;-71
2023/08/12 02:24:01;;;;;;;0.30;0.30;;;;;;;21.19;80.06;99906.81;4987442;28;20073;-72
2023/08/12 02:26:28;;;;;;;0.30;0.30;;;;;;;21.16;80.38;99897.22;5002278;28;20046;-72
2023/08/12 02:28:55;;;;;;;0.20;0.20;;;;;;;21.11;80.55;99889.91;5005769;28;20049;-72
2023/08/12 02:31:22;;;;;;;0.20;0.20;;;;;;;21.09;80.61;99902.50;5004485;28;20486;-71
2023/08/12 02:33:49;;;;;;;0.20;0.20;;;;;;;21.05;80.96;99896.81;5006999;28;20084;-72
2023/08/12 02:36:15;;;;;;;;;;;;;;;21.01;81.03;99893.13;5018971;28;20072;-71
2023/08/12 02:38:41;;;;;;;0.30;0.30;;;;;;;20.97;81.04;99900.53;5003572;28;20444;-70
2023/08/12 02:41:09;;;;;;;0.20;0.20;;;;;;;20.95;81.46;99909.19;4985135;28;20429;-71
2023/08/12 02:43:35;;;;;;;0.30;0.30;;;;;;;20.94;81.38;99915.91;4986157;28;20056;-71
2023/08/12 02:46:04;;;;;;;0.20;0.20;;;;;;;20.93;81.55;99921.81;5012909;28;20073;-71
2023/08/12 02:48:30;;;;;;;0.20;0.20;;;;;;;20.89;82.15;99921.69;5002372;28;20115;-71
2023/08/12 02:50:56;;;;;;;0.30;0.30;;;;;;;20.83;82.34;99912.75;4986233;28;20074;-74
2023/08/12 02:53:23;;;;;;;0.20;0.20;;;;;;;20.80;82.39;99912.56;4985295;28;20057;-71
2023/08/12 02:55:49;;;;;;;0.20;0.20;;;;;;;20.79;82.28;99910.97;4971617;28;20077;-72
2023/08/12 02:58:15;;;;;;;0.20;0.20;;;;;;;20.73;82.13;99896.47;5005641;28;20430;-72
2023/08/12 03:00:45;;;;;;;0.27;0.27;;;;;;;20.80;82.16;99905.09;4988237;28;20049;-73
2023/08/12 03:03:13;;;;;;;0.30;0.30;;;;;;;20.83;81.61;99903.59;4986956;28;20133;-73
2023/08/12 03:05:40;;;;;;;0.22;0.22;;;;;;;20.85;81.66;99892.97;5002516;28;20553;-72
2023/08/12 03:08:07;;;;;;;0.20;0.20;;;;;;;20.84;81.53;99891.34;5002989;28;20038;-73
2023/08/12 03:10:34;;;;;;;0.20;0.20;;;;;;;20.85;81.90;99887.41;5002840;28;20058;-73
2023/08/12 03:13:00;;;;;;;;;;;;;;;20.90;81.47;99886.34;5005243;28;20054;-73
2023/08/12 03:15:26;;;;;;;0.20;0.20;;;;;;;20.95;80.89;99858.38;4988197;28;19940;-73
2023/08/12 03:17:53;;;;;;;0.20;0.20;;;;;;;20.96;80.49;99852.47;5001897;28;20046;-73
2023/08/12 03:20:22;;;;;;;0.20;0.20;;;;;;;21.00;79.81;99849.00;5002683;28;20587;-73
2023/08/12 03:22:49;;;;;;;0.20;0.20;;;;;;;21.08;79.60;99845.31;5002248;28;20748;-74
2023/08/12 03:25:17;;;;;;;0.20;0.20;;;;;;;21.11;78.56;99842.66;5001478;28;20140;-74
2023/08/12 03:27:45;;;;;;;0.30;0.30;;;;;;;21.15;78.62;99837.22;4987663;28;20532;-73
2023/08/12 03:30:12;;;;;;;0.30;0.30;;;;;;;21.16;77.87;99827.72;4988708;28;20080;-74
2023/08/12 03:32:39;;;;;;;0.30;0.30;;;;;;;21.28;77.30;99846.38;5000231;28;20107;-72
2023/08/12 03:35:05;;;;;;;0.25;0.25;;;;;;;21.33;76.97;99848.91;5005696;28;20164;-73
2023/08/12 03:37:33;;;;;;;0.20;0.20;;;;;;;21.42;76.63;99859.13;5003692;28;20046;-72
2023/08/12 03:40:01;;;;;;;0.20;0.20;;;;;;;21.46;75.94;99865.63;5003963;28;20076;-72
2023/08/12 03:42:30;;;;;;;0.30;0.30;;;;;;;21.50;75.56;99864.56;4985558;28;20054;-72
2023/08/12 03:44:57;;;;;;;;;;;;;;;21.51;75.71;99868.16;5001542;28;20058;-73
2023/08/12 03:47:24;;;;;;;0.30;0.30;;;;;;;21.56;75.88;99876.28;5003277;28;20392;-73
2023/08/12 03:49:51;;;;;;;0.20;0.20;;;;;;;21.56;75.75;99875.47;4970069;28;20096;-73
2023/08/12 03:52:17;;;;;;;0.30;0.30;;;;;;;21.51;75.72;99880.09;4987289;28;20112;-74
2023/08/12 03:54:45;;;;;;;0.20;0.20;;;;;;;21.48;75.83;99893.88;5002029;28;20419;-73
2023/08/12 03:57:11;;;;;;;0.20;0.20;;;;;;;21.43;76.02;99880.22;4963384;28;20073;-74
2023/08/12 03:59:37;;;;;;;0.20;0.20;;;;;;;21.41;76.35;99876.97;5000544;28;21081;-74
2023/08/12 04:02:04;;;;;;;0.30;0.30;;;;;;;21.43;76.16;99877.44;4980212;28;20046;-72
2023/08/12 04:04:30;;;;;;;0.23;0.23;;;;;;;21.43;76.09;99883.78;4986720;28;20049;-72
2023/08/12 04:06:56;;;;;;;0.30;0.30;;;;;;;21.44;75.85;99879.06;4985076;28;20052;-74
2023/08/12 04:09:22;;;;;;;0.20;0.20;;;;;;;21.42;75.60;99893.28;5001149;28;20124;-74
2023/08/12 04:11:51;;;;;;;0.30;0.30;;;;;;;21.40;75.51;99892.84;4989751;28;20054;-73
2023/08/12 04:14:17;;;;;;;0.30;0.30;;;;;;;21.33;75.36;99890.63;5007996;28;20054;-71
2023/08/12 04:16:43;;;;;;;0.20;0.20;;;;;;;21.29;75.49;99892.47;5010376;28;20053;-72
2023/08/12 04:19:10;;;;;;;0.30;0.30;;;;;;;21.23;75.69;99891.88;5008745;28;20058;-74
2023/08/12 04:21:36;;;;;;;0.20;0.20;;;;;;;21.18;75.86;99883.78;4991447;28;20084;-73
2023/08/12 04:24:03;;;;;;;0.20;0.20;;;;;;;21.18;75.89;99872.66;4990767;28;20347;-73
2023/08/12 04:26:29;;;;;;;0.20;0.20;;;;;;;21.15;76.10;99864.19;5006680;28;20073;-73
2023/08/12 04:28:57;;;;;;;0.20;0.20;;;;;;;21.08;76.24;99876.69;5006979;28;20068;-73
2023/08/12 04:31:24;;;;;;;0.28;0.28;;;;;;;21.08;76.12;99887.00;4982434;28;20057;-73
2023/08/12 04:33:52;;;;;;;0.30;0.30;;;;;;;21.05;76.14;99899.59;4989446;28;20421;-73
2023/08/12 04:36:20;;;;;;;0.20;0.20;;;;;;;21.05;76.65;99907.94;4975861;28;20049;-73
2023/08/12 04:38:47;;;;;;;;;;;;;;;21.06;76.85;99906.00;4986733;28;20050;-73
2023/08/12 04:41:13;;;;;;;0.20;0.20;;;;;;;21.04;76.68;99892.41;4973548;28;19963;-73
2023/08/12 04:43:40;;;;;;;0.20;0.20;;;;;;;21.05;76.51;99898.81;4991046;28;20050;-73
2023/08/12 04:46:08;;;;;;;0.20;0.20;;;;;;;21.08;76.24;99901.72;4973617;28;20061;-74
2023/08/12 04:48:35;;;;;;;0.20;0.20;;;;;;;21.10;76.17;99899.41;5013264;28;20053;-72
2023/08/12 04:51:02;;;;;;;0.20;0.20;;;;;;;21.10;75.77;99910.53;4988370;28;20056;-73
2023/08/12 04:53:29;;;;;;;0.20;0.20;;;;;;;21.13;75.75;99919.31;4990140;28;20076;-73
2023/08/12 04:55:57;;;;;;;0.20;0.20;;;;;;;21.14;75.54;99932.06;5006228;28;20054;-74
2023/08/12 04:58:23;;;;;;;0.20;0.20;;;;;;;21.11;75.42;99939.09;5006245;28;20509;-73
2023/08/12 05:00:51;;;;;;;;;;;;;;;21.08;75.44;99937.03;5004356;28;20053;-74
2023/08/12 05:03:21;;;;;;;0.20;0.20;;;;;;;21.04;75.06;99936.88;4974099;28;19925;-73
2023/08/12 05:05:50;;;;;;;0.20;0.20;;;;;;;20.99;75.68;99914.88;5005660;28;20115;-73
2023/08/12 05:08:17;;;;;;;0.20;0.20;;;;;;;21.00;75.89;99918.50;5006571;28;20395;-73
2023/08/12 05:10:46;;;;;;;0.20;0.20;;;;;;;21.01;75.07;99909.78;5004768;28;20046;-73
2023/08/12 05:13:12;;;;;;;0.20;0.20;;;;;;;21.04;74.86;99897.19;5005032;28;20054;-72
2023/08/12 05:15:39;;;;;;;0.20;0.20;;;;;;;21.05;74.93;99894.03;5004849;28;20053;-73
2023/08/12 05:18:06;;;;;;;0.20;0.20;;;;;;;21.05;74.71;99891.25;5002693;28;20092;-73
2023/08/12 05:20:34;;;;;;;0.20;0.20;;;;;;;20.98;74.46;99888.25;4991425;28;20100;-73
2023/08/12 05:23:01;;;;;;;0.20;0.20;;;;;;;20.99;74.71;99903.75;5004172;28;20108;-73
2023/08/12 05:25:28;;;;;;;0.20;0.20;;;;;;;20.91;75.02;99915.78;5006717;28;20421;-73
2023/08/12 05:27:55;;;;;;;0.20;0.20;;;;;;;20.88;75.17;99919.22;5003715;28;20053;-73
2023/08/12 05:30:21;;;;;;;0.20;0.20;;;;;;;20.83;75.28;99892.47;5003763;28;20308;-73
2023/08/12 05:32:47;;;;;;;0.20;0.20;;;;;;;20.81;75.17;99859.50;4988130;28;20128;-73
2023/08/12 05:35:13;;;;;;;0.20;0.20;;;;;;;20.81;74.87;99856.72;5008243;28;20103;-73
2023/08/12 05:37:41;;;;;;;0.20;0.20;;;;;;;20.84;74.71;99846.91;5008806;28;20048;-72
2023/08/12 05:40:09;;;;;;;0.20;0.20;;;;;;;20.86;74.47;99841.81;5009582;28;20096;-72
2023/08/12 05:42:35;;;;;;;0.20;0.20;;;;;;;20.91;74.13;99815.75;5024054;28;20071;-71
2023/08/12 05:45:03;;;;;;;0.20;0.20;;;;;;;20.95;73.85;99797.25;5024131;28;20555;-74
2023/08/12 05:47:32;;;;;;;0.20;0.20;;;;;;;20.95;73.51;99792.47;5009153;28;20052;-73
2023/08/12 05:49:59;;;;;;;0.20;0.20;;;;;;;21.00;73.52;99797.00;5033121;28;20447;-73
2023/08/12 05:52:25;;;;;;;0.20;0.20;;;;;;;21.04;73.55;99797.13;5013682;28;20432;-73
2023/08/12 05:54:53;;;;;;;0.20;0.20;;;;;;;21.06;73.08;99795.63;5022919;28;20629;-73
2023/08/12 05:57:19;;;;;;;0.30;0.30;;;;;;;21.08;72.70;99775.81;5025453;28;20045;-73
2023/08/12 05:59:45;;;;;;;0.30;0.30;;;;;;;21.11;72.63;99772.34;5016815;28;20573;-73
2023/08/12 06:02:11;;;;;;;0.30;0.30;;;;;;;21.13;72.13;99775.59;5027046;28;20077;-73
2023/08/12 06:04:38;;;;;;;0.20;0.20;;;;;;;21.17;72.23;99778.47;5024604;28;20053;-72
2023/08/12 06:07:04;;;;;;;0.30;0.30;;;;;;;21.22;71.19;99772.69;5023316;28;20045;-73
2023/08/12 06:09:30;;;;;;;0.20;0.20;;;;;;;21.30;70.22;99766.22;4990156;28;20045;-73
2023/08/12 06:11:58;;;;;;;0.22;0.22;;;;;;;21.44;69.27;99760.28;4989286;28;20050;-73
2023/08/12 06:14:28;;;;;;;0.30;0.30;;;;;;;21.65;68.24;99748.19;5008285;28;20084;-73
2023/08/12 06:16:55;;;;;;;0.30;0.30;;;;;;;21.88;66.69;99751.31;4973576;28;20152;-73
2023/08/12 06:19:21;;;;;;;0.30;0.30;;;;;;;22.08;64.87;99762.59;5006022;28;20057;-73
2023/08/12 06:21:47;;;;;;;0.20;0.20;;;;;;;22.18;63.85;99762.09;5025444;28;20133;-73
2023/08/12 06:24:14;;;;;;;0.20;0.20;;;;;;;22.26;63.20;99773.41;5023639;28;20076;-73
2023/08/12 06:26:40;;;;;;;0.20;0.20;;;;;;;22.29;62.94;99787.44;4989809;28;20111;-72
2023/08/12 06:29:08;;;;;;;0.20;0.20;;;;;;;22.31;63.19;99787.06;4988732;28;20136;-73
2023/08/12 06:31:34;;;;;;;0.30;0.30;;;;;;;22.31;63.49;99787.06;5025428;28;20316;-72
2023/08/12 06:34:00;;;;;;;0.30;0.30;;;;;;;22.28;63.42;99787.78;4991353;28;20045;-72
2023/08/12 06:36:27;;;;;;;0.30;0.30;;;;;;;22.22;64.10;99790.00;4990180;28;20467;-72
2023/08/12 06:38:53;;;;;;;0.20;0.20;;;;;;;22.17;65.18;99796.66;4993243;28;20072;-73
2023/08/12 06:41:20;;;;;;;0.20;0.20;;;;;;;22.12;65.23;99796.91;5009402;28;20617;-72
2023/08/12 06:43:46;;;;;;;0.30;0.30;;;;;;;22.15;65.16;99787.84;5005145;28;20145;-72
2023/08/12 06:46:13;;;;;;;0.30;0.30;;;;;;;22.23;64.95;99794.41;5002618;28;20045;-72
2023/08/12 06:48:39;;;;;;;0.30;0.30;;;;;;;22.30;64.67;99777.09;5002298;28;20046;-73
2023/08/12 06:51:12;;;;;;;0.30;0.30;;;;;;;22.58;64.01;99791.03;5003041;28;20050;-74
2023/08/12 06:53:39;;;;;;;0.30;0.30;;;;;;;22.84;62.35;99791.72;5002731;28;20056;-74
2023/08/12 06:56:05;;;;;;;;;;;;;;;23.03;61.56;99793.78;5001425;28;20092;-72
2023/08/12 06:58:31;;;;;;;0.30;0.30;;;;;;;23.05;60.75;99797.81;5004271;28;19933;-73
2023/08/12 07:00:59;;;;;;;0.20;0.20;;;;;;;23.02;60.58;99795.75;5002674;28;20123;-73
2023/08/12 07:03:26;;;;;;;0.30;0.30;;;;;;;23.00;60.60;99800.88;5003192;28;20197;-74
2023/08/12 07:05:53;;;;;;;0.20;0.20;;;;;;;22.93;61.01;99789.53;5003239;28;20042;-73
2023/08/12 07:08:19;;;;;;;0.30;0.30;;;;;;;22.89;61.16;99794.22;5002247;28;20041;-74
2023/08/12 07:10:45;;;;;;;0.30;0.30;;;;;;;22.78;61.48;99791.94;4984528;28;20049;-74
2023/08/12 07:13:12;;;;;;;0.30;0.30;;;;;;;22.70;61.96;99784.59;5000183;28;20050;-74
2023/08/12 07:15:40;;;;;;;0.30;0.30;;;;;;;22.69;61.89;99787.72;4984379;28;20539;-73
2023/08/12 07:18:07;;;;;;;0.30;0.30;;;;;;;22.74;62.14;99784.69;4998100;28;20296;-74
2023/08/12 07:20:35;;;;;;;0.55;0.30;;;;;;;22.84;62.67;99786.91;5007222;28;20050;-73
2023/08/12 07:23:02;;;;;;;0.40;0.40;;;;;;;23.03;62.25;99780.63;5000862;28;20080;-73
2023/08/12 07:25:29;;;;;;;0.30;0.30;;;;;;;23.26;61.67;99774.47;5001170;28;20544;-73
2023/08/12 07:27:55;;;;;;;;;;;;;;;23.44;61.37;99777.66;5000311;28;20120;-73
2023/08/12 07:30:21;;;;;;;0.30;0.30;;;;;;;23.45;60.91;99781.25;5006222;28;20027;-73
2023/08/12 07:32:47;;;;;;;0.30;0.30;;;;;;;23.44;60.91;99769.28;5001897;28;20042;-73
2023/08/12 07:35:13;;;;;;;0.30;0.30;;;;;;;23.35;60.92;99772.28;5003066;28;20061;-72
2023/08/12 07:37:41;;;;;;;0.30;0.30;;;;;;;23.21;61.26;99774.69;5003308;28;20060;-73
2023/08/12 07:40:09;;;;;;;0.30;0.30;;;;;;;23.06;61.55;99784.69;5007497;28;20073;-73
2023/08/12 07:42:35;;;;;;;0.30;0.30;;;;;;;23.01;62.35;99782.16;5003392;28;20633;-73
2023/08/12 07:45:01;;;;;;;0.30;0.30;;;;;;;22.97;62.32;99784.06;5003373;28;21914;-73
2023/08/12 07:47:30;;;;;;;0.30;0.30;;;;;;;22.95;62.40;99787.22;5001170;28;20144;-73
2023/08/12 07:49:56;;;;;;;0.30;0.30;;;;;;;22.95;62.71;99790.81;5004815;28;20042;-73
2023/08/12 07:52:23;;;;;;;0.30;0.30;;;;;;;22.98;62.17;99794.84;5001315;28;20099;-71
2023/08/12 07:54:51;;;;;;;0.30;0.30;;;;;;;23.02;62.04;99798.53;5003667;28;20387;-73
2023/08/12 07:57:17;;;;;;;0.30;0.30;;;;;;;22.98;62.37;99825.53;5002265;28;20046;-72
2023/08/12 07:59:44;;;;;;;0.20;0.20;;;;;;;22.88;62.86;99818.50;5008072;28;20041;-72
2023/08/12 08:02:10;;;;;;;0.30;0.30;;;;;;;22.76;62.97;99829.72;5002391;28;20145;-72
2023/08/12 08:04:36;;;;;;;0.20;0.20;;;;;;;22.61;63.88;99828.50;5001791;28;20543;-73
2023/08/12 08:07:03;;;;;;;0.30;0.30;;;;;;;22.50;64.17;99817.91;4967422;28;20057;-72
2023/08/12 08:09:30;;;;;;;0.30;0.30;;;;;;;22.39;64.86;99797.25;5000188;28;20379;-72
2023/08/12 08:11:57;;;;;;;0.30;0.30;;;;;;;22.31;65.56;99785.09;5000103;28;20082;-72
2023/08/12 08:14:23;;;;;;;0.30;0.30;;;;;;;22.23;66.32;99772.97;5001994;28;20050;-72
2023/08/12 08:16:50;;;;;;;0.30;0.30;;;;;;;22.19;66.18;99799.06;4983164;28;20058;-72
2023/08/12 08:19:16;;;;;;;0.22;0.22;;;;;;;22.18;66.49;99803.03;5000223;28;20048;-73
2023/08/12 08:21:42;;;;;;;0.30;0.30;;;;;;;22.16;66.77;99819.28;5001593;28;20734;-72
2023/08/12 08:24:11;;;;;;;0.30;0.30;;;;;;;22.17;66.92;99812.53;5001953;28;20046;-73
2023/08/12 08:26:37;;;;;;;0.30;0.30;;;;;;;22.15;67.07;99815.66;4983320;28;20096;-72
2023/08/12 08:29:05;;;;;;;0.30;0.30;;;;;;;22.19;67.35;99794.34;4999838;28;20054;-72
2023/08/12 08:31:31;;;;;;;0.30;0.30;;;;;;;22.26;67.41;99785.38;4971865;28;20410;-72
2023/08/12 08:33:57;;;;;;;0.30;0.30;;;;;;;22.33;67.68;99780.00;5003582;28;20088;-72
2023/08/12 08:36:24;;;;;;;0.30;0.30;;;;;;;22.36;67.38;99787.63;5000953;28;20046;-72
2023/08/12 08:38:50;;;;;;;0.20;0.20;;;;;;;22.35;67.02;99801.94;4999854;28;20053;-72
2023/08/12 08:41:17;;;;;;;0.30;0.30;;;;;;;22.41;67.08;99831.13;4981261;28;20100;-73
2023/08/12 08:43:45;;;;;;;0.30;0.30;;;;;;;22.44;67.59;99829.63;5013090;28;20129;-72
2023/08/12 08:46:15;;;;;;;0.32;0.32;;;;;;;22.52;67.83;99839.81;5006263;28;20388;-72
2023/08/12 08:48:42;;;;;;;0.30;0.30;;;;;;;22.57;67.26;99834.00;5000035;28;20042;-72
2023/08/12 08:51:10;;;;;;;0.20;0.20;;;;;;;22.57;67.65;99830.38;4999380;28;20048;-72
2023/08/12 08:53:38;;;;;;;0.30;0.30;;;;;;;22.58;67.51;99815.28;5001433;28;20383;-73
2023/08/12 08:56:05;;;;;;;0.30;0.30;;;;;;;22.60;67.22;99812.97;5000273;28;20064;-73
2023/08/12 08:58:31;;;;;;;0.30;0.30;;;;;;;22.63;67.65;99815.84;5005813;28;20112;-73
2023/08/12 09:00:58;;;;;;;0.30;0.30;;;;;;;22.72;66.02;99826.03;5004835;28;20190;-73
2023/08/12 09:03:26;;;;;;;;;;;;;;;22.85;66.23;99819.19;4988442;28;20575;-72
2023/08/12 09:05:55;;;;;;;0.30;0.30;;;;;;;22.94;65.35;99824.59;5014530;28;20439;-72
2023/08/12 09:08:22;;;;;;;0.30;0.30;;;;;;;23.03;65.71;99816.09;5005217;28;20104;-72
2023/08/12 09:10:49;;;;;;;0.30;0.30;;;;;;;23.04;65.16;99828.84;5003729;28;20108;-73
2023/08/12 09:13:18;;;;;;;0.30;0.30;;;;;;;22.98;65.00;99825.53;5004889;28;20049;-73
2023/08/12 09:15:44;;;;;;;0.30;0.30;;;;;;;22.84;66.01;99808.44;5012500;28;20048;-72
2023/08/12 09:18:10;;;;;;;0.30;0.30;;;;;;;22.67;66.19;99818.75;5014105;28;20449;-73
2023/08/12 09:20:38;;;;;;;0.30;0.30;;;;;;;22.47;66.02;99818.59;5001992;28;20185;-72
2023/08/12 09:23:04;;;;;;;0.43;0.40;;;;;;;22.45;66.81;99837.59;4987700;28;20056;-73
2023/08/12 09:25:30;;;;;;;0.30;0.30;;;;;;;22.44;66.45;99860.25;5001733;28;20054;-72
2023/08/12 09:27:59;;;;;;;0.30;0.30;;;;;;;22.38;67.35;99868.84;5009335;28;20041;-72
2023/08/12 09:30:28;;;;;;;0.30;0.30;;;;;;;22.30;67.87;99855.06;5005588;28;20315;-72
2023/08/12 09:33:00;;;;;;;0.25;0.25;;;;;;;22.22;68.17;99868.78;5002518;28;20056;-73
2023/08/12 09:35:32;;;;;;;0.30;0.30;;;;;;;22.17;68.69;99863.47;5005334;28;20412;-73
2023/08/12 09:38:02;;;;;;;0.30;0.30;;;;;;;22.12;68.66;99852.56;5007634;28;20145;-71
2023/08/12 09:40:29;;;;;;;0.30;0.30;;;;;;;22.09;68.67;99853.28;5012095;28;20041;-73
2023/08/12 09:42:56;;;;;;;0.20;0.20;;;;;;;22.05;68.87;99841.25;5013218;28;20084;-72
2023/08/12 09:45:25;;;;;;;0.30;0.30;;;;;;;22.00;69.31;99825.59;5011373;28;20046;-73
2023/08/12 09:47:52;;;;;;;0.30;0.30;;;;;;;21.99;69.53;99818.41;4996201;28;20045;-73
2023/08/12 09:50:22;;;;;;;0.30;0.30;;;;;;;21.98;68.95;99822.34;4973161;28;20108;-72
2023/08/12 09:52:50;;;;;;;0.30;0.30;;;;;;;21.90;69.11;99815.75;5009013;28;20048;-72
2023/08/12 09:55:20;;;;;;;0.30;0.30;;;;;;;21.89;68.89;99811.34;4998408;28;20057;-72
2023/08/12 09:57:52;;;;;;;0.20;0.20;;;;;;;21.92;68.68;99805.09;5017058;28;20046;-73
2023/08/12 10:00:21;;;;;;;0.30;0.30;;;;;;;21.92;68.98;99807.03;4992760;28;20052;-72
2023/08/12 10:02:49;;;;;;;0.30;0.30;;;;;;;21.92;68.82;99798.69;5014760;28;20652;-72
2023/08/12 10:05:20;;;;;;;0.30;0.30;;;;;;;21.94;69.26;99813.88;5007772;28;20148;-71
2023/08/12 10:07:48;;;;;;;0.30;0.30;;;;;;;21.91;68.60;99813.78;5010244;28;20049;-72
2023/08/12 10:10:14;;;;;;;0.30;0.30;;;;;;;21.94;68.48;99821.44;5011436;28;20053;-72
2023/08/12 10:12:42;;;;;;;0.30;0.30;;;;;;;21.99;68.75;99812.00;5013768;28;20045;-72
2023/08/12 10:15:10;;;;;;;0.30;0.30;;;;;;;21.92;70.46;99813.44;5017027;28;20049;-72
2023/08/12 10:17:38;;;;;;;0.30;0.30;;;;;;;21.79;71.38;99817.41;5011810;28;20045;-73
2023/08/12 10:20:07;;;;;;;0.20;0.20;;;;;;;21.78;71.05;99821.34;5002257;28;20181;-73
2023/08/12 10:22:36;;;;;;;0.30;0.30;;;;;;;21.70;71.47;99830.63;4980794;28;20053;-72
2023/08/12 10:25:04;;;;;;;0.30;0.30;;;;;;;21.56;72.13;99825.41;5013053;28;20049;-73
2023/08/12 10:27:31;;;;;;;0.20;0.20;;;;;;;21.40;72.86;99817.75;4995802;28;20144;-73
2023/08/12 10:30:02;;;;;;;0.20;0.20;;;;;;;21.36;73.85;99825.97;5014941;28;20416;-72
2023/08/12 10:32:32;;;;;;;0.30;0.30;;;;;;;21.37;73.37;99821.22;5010792;28;20142;-73
2023/08/12 10:34:59;;;;;;;0.30;0.30;;;;;;;21.41;73.63;99815.78;5012467;28;20136;-73
2023/08/12 10:37:26;;;;;;;0.20;0.20;;;;;;;21.49;73.24;99815.69;5012542;28;20410;-72
2023/08/12 10:39:54;;;;;;;0.30;0.30;;;;;;;21.61;72.99;99809.28;5013225;28;20052;-72
2023/08/12 10:42:41;;;;;;;0.30;0.30;;;;;;;21.70;72.26;99817.53;4978724;28;20417;-72
2023/08/12 10:45:09;;;;;;;0.30;0.30;;;;;;;21.66;72.91;99820.19;5010246;28;20045;-72
2023/08/12 10:47:39;;;;;;;0.30;0.30;;;;;;;21.61;73.12;99798.16;5012522;28;20049;-72
2023/08/12 10:50:06;;;;;;;0.30;0.30;;;;;;;21.56;74.09;99790.06;5008326;28;20041;-73
2023/08/12 10:52:34;;;;;;;0.28;0.28;;;;;;;21.46;74.20;99796.09;4995707;28;20433;-72
2023/08/12 10:55:19;;;;;;;0.20;0.20;;;;;;;21.36;74.20;99814.84;5014167;28;20045;-73
2023/08/12 10:57:46;;;;;;;0.30;0.30;;;;;;;21.25;74.92;99839.53;5004560;28;20144;-73
2023/08/12 11:00:16;;;;;;;0.20;0.20;;;;;;;21.23;75.61;99843.84;5015535;28;20057;-72
2023/08/12 11:02:46;;;;;;;0.30;0.30;;;;;;;21.21;75.90;99848.91;5010303;28;20041;-72
2023/08/12 11:05:14;;;;;;;0.25;0.25;;;;;;;21.22;76.15;99853.31;4979302;28;20049;-72
2023/08/12 11:07:43;;;;;;;0.20;0.20;;;;;;;21.19;76.43;99848.44;5022519;28;20069;-73
2023/08/12 11:10:14;;;;;;;0.22;0.22;;;;;;;21.16;76.76;99854.69;5006620;28;20300;-73
2023/08/12 11:12:42;;;;;;;0.20;0.20;;;;;;;21.07;77.20;99852.03;5004093;28;20041;-72
2023/08/12 11:15:10;;;;;;;0.30;0.30;;;;;;;21.05;77.72;99857.13;5002675;28;20445;-73
2023/08/12 11:17:42;;;;;;;0.30;0.30;;;;;;;21.08;77.54;99890.59;4990304;28;20049;-73
2023/08/12 11:20:10;;;;;;;0.30;0.30;;;;;;;21.16;77.42;99871.38;5008664;28;20153;-73
2023/08/12 11:22:37;;;;;;;0.30;0.30;;;;;;;21.21;77.94;99885.03;4989202;28;20050;-72
2023/08/12 11:25:08;;;;;;;0.20;0.20;;;;;;;21.15;79.19;99892.81;5007448;28;20057;-73
2023/08/12 11:27:43;;;;;;;0.20;0.20;;;;;;;20.88;82.03;99897.00;4995029;28;20045;-73
2023/08/12 11:30:11;;;;;;;0.20;0.20;;;;;;;20.55;82.01;99871.63;5001348;28;20049;-73
2023/08/12 11:32:39;;;;;;;0.25;0.25;;;;;;;20.43;82.80;99870.78;4997468;28;20050;-73
2023/08/12 11:35:08;;;;;;;0.20;0.20;;;;;;;20.40;83.57;99861.16;5002967;28;20136;-72
2023/08/12 11:37:36;;;;;;;0.20;0.20;;;;;;;20.46;83.54;99857.03;5003951;28;20072;-73